| time (UTC) | temp C | wind direction | speed KPH | gust KPH | rain 1hr cm | rain 24hr cm | rain mn cm | humidity % | barometer mb |
| 20260508071950 | 17 | 157 | 6.4 | 12.9 | 0.00 | 0.00 | 0.00 | 77 | 1013.8 |
| 20260508064910 | 16 | 208 | 8.0 | 14.5 | 0.00 | 0.00 | 0.00 | 78 | 1013.6 |
| 20260508061716 | 16 | 175 | 6.4 | 11.3 | 0.00 | 0.00 | 0.00 | 80 | 1013.6 |
| 20260508054639 | 15 | 0 | 0.0 | 6.4 | 0.00 | 0.00 | 0.00 | 82 | 1013.3 |
| 20260508051623 | 14 | 0 | 0.0 | 0.0 | 0.00 | 0.00 | 0.00 | 85 | 1013.0 |
| 20260508040553 | 13 | 171 | 6.4 | 11.3 | 0.00 | 0.00 | 0.00 | 86 | 1012.3 |
| 20260508011746 | 13 | 192 | 3.2 | 11.3 | 0.00 | 0.00 | 0.00 | 88 | 1011.8 |
| 20260508004710 | 13 | 171 | 6.4 | 11.3 | 0.00 | 0.00 | 0.00 | 89 | 1011.6 |
| 20260507210445 | 13 | 47 | 3.2 | 9.7 | 0.00 | 0.00 | 0.00 | 84 | 1012.2 |
| 20260507203257 | 13 | 0 | 0.0 | 1.6 | 0.00 | 0.00 | 0.00 | 84 | 1012.7 |
| 20260507200212 | 14 | 194 | 4.8 | 9.7 | 0.00 | 0.00 | 0.00 | 83 | 1012.7 |
| 20260507182016 | 14 | 146 | 12.9 | 19.3 | 0.00 | 0.00 | 0.00 | 82 | 1011.9 |
| 20260507174822 | 15 | 146 | 11.3 | 20.9 | 0.00 | 0.00 | 0.00 | 79 | 1011.6 |
| 20260507171750 | 15 | 113 | 17.7 | 24.1 | 0.00 | 0.00 | 0.00 | 77 | 1011.3 |
| 20260507164710 | 16 | 159 | 16.1 | 25.7 | 0.00 | 0.00 | 0.00 | 76 | 1011.7 |
| 20260507161613 | 16 | 140 | 16.1 | 33.8 | 0.00 | 0.00 | 0.00 | 73 | 1011.6 |
| 20260507133358 | 18 | 140 | 22.5 | 33.8 | 0.00 | 0.00 | 0.00 | 64 | 1011.5 |
| 20260507130242 | 18 | 145 | 20.9 | 35.4 | 0.00 | 0.00 | 0.00 | 64 | 1011.8 |
| 20260507092029 | 18 | 126 | 37.0 | 61.2 | 0.00 | 0.00 | 0.00 | 51 | 1012.4 |
| 20260507084953 | 18 | 113 | 38.6 | 53.1 | 0.00 | 0.00 | 0.00 | 49 | 1012.3 |
| 20260507081813 | 18 | 134 | 27.4 | 51.5 | 0.00 | 0.00 | 0.00 | 52 | 1012.3 |